sensor_id;sensor_type;location;lat;lon;timestamp;P1;durP1;ratioP1;P2;durP2;ratioP2
13197;SDS011;6664;52.514;13.440;2023-06-26T00:01:44;10.50;;;6.30;;
13197;SDS011;6664;52.514;13.440;2023-06-26T00:04:30;8.10;;;6.40;;
13197;SDS011;6664;52.514;13.440;2023-06-26T00:07:15;9.87;;;6.57;;
13197;SDS011;6664;52.514;13.440;2023-06-26T00:10:01;9.47;;;6.73;;
13197;SDS011;6664;52.514;13.440;2023-06-26T00:12:50;10.33;;;7.40;;
13197;SDS011;6664;52.514;13.440;2023-06-26T00:15:37;12.40;;;7.40;;
13197;SDS011;6664;52.514;13.440;2023-06-26T00:18:25;8.90;;;7.07;;
13197;SDS011;6664;52.514;13.440;2023-06-26T00:21:10;8.37;;;6.80;;
13197;SDS011;6664;52.514;13.440;2023-06-26T00:23:56;8.60;;;7.00;;
13197;SDS011;6664;52.514;13.440;2023-06-26T00:26:42;9.00;;;6.93;;
13197;SDS011;6664;52.514;13.440;2023-06-26T00:29:31;8.43;;;7.17;;
13197;SDS011;6664;52.514;13.440;2023-06-26T00:32:17;7.10;;;6.33;;
13197;SDS011;6664;52.514;13.440;2023-06-26T00:35:03;9.17;;;7.13;;
13197;SDS011;6664;52.514;13.440;2023-06-26T00:37:49;8.23;;;6.10;;
13197;SDS011;6664;52.514;13.440;2023-06-26T00:40:35;9.27;;;7.60;;
13197;SDS011;6664;52.514;13.440;2023-06-26T00:43:25;8.13;;;7.03;;
13197;SDS011;6664;52.514;13.440;2023-06-26T00:46:14;8.27;;;7.07;;
13197;SDS011;6664;52.514;13.440;2023-06-26T00:49:00;11.33;;;7.30;;
13197;SDS011;6664;52.514;13.440;2023-06-26T00:51:54;8.90;;;7.70;;
13197;SDS011;6664;52.514;13.440;2023-06-26T00:54:45;7.57;;;5.90;;
13197;SDS011;6664;52.514;13.440;2023-06-26T00:57:33;8.77;;;7.20;;
13197;SDS011;6664;52.514;13.440;2023-06-26T01:00:18;8.07;;;6.90;;
13197;SDS011;6664;52.514;13.440;2023-06-26T01:03:07;9.97;;;7.50;;
13197;SDS011;6664;52.514;13.440;2023-06-26T01:05:54;8.10;;;6.80;;
13197;SDS011;6664;52.514;13.440;2023-06-26T01:08:43;8.93;;;7.10;;
13197;SDS011;6664;52.514;13.440;2023-06-26T01:11:30;7.30;;;6.60;;
13197;SDS011;6664;52.514;13.440;2023-06-26T01:14:17;13.37;;;6.70;;
13197;SDS011;6664;52.514;13.440;2023-06-26T01:17:06;10.57;;;7.00;;
13197;SDS011;6664;52.514;13.440;2023-06-26T01:19:58;8.07;;;6.67;;
13197;SDS011;6664;52.514;13.440;2023-06-26T01:22:49;11.77;;;6.87;;
13197;SDS011;6664;52.514;13.440;2023-06-26T01:28:38;7.23;;;6.53;;
13197;SDS011;6664;52.514;13.440;2023-06-26T01:31:27;8.40;;;6.50;;
13197;SDS011;6664;52.514;13.440;2023-06-26T01:34:16;11.40;;;7.50;;
13197;SDS011;6664;52.514;13.440;2023-06-26T01:37:02;13.33;;;7.73;;
13197;SDS011;6664;52.514;13.440;2023-06-26T01:39:50;10.77;;;7.83;;
13197;SDS011;6664;52.514;13.440;2023-06-26T01:42:36;7.30;;;5.90;;
13197;SDS011;6664;52.514;13.440;2023-06-26T01:45:24;9.87;;;7.40;;
13197;SDS011;6664;52.514;13.440;2023-06-26T01:48:14;9.20;;;7.10;;
13197;SDS011;6664;52.514;13.440;2023-06-26T01:51:08;10.23;;;7.87;;
13197;SDS011;6664;52.514;13.440;2023-06-26T01:53:55;8.90;;;7.80;;
13197;SDS011;6664;52.514;13.440;2023-06-26T01:56:45;10.33;;;6.97;;
13197;SDS011;6664;52.514;13.440;2023-06-26T01:59:35;15.40;;;7.17;;
13197;SDS011;6664;52.514;13.440;2023-06-26T02:02:23;9.63;;;7.40;;
13197;SDS011;6664;52.514;13.440;2023-06-26T02:05:11;10.80;;;7.27;;
13197;SDS011;6664;52.514;13.440;2023-06-26T02:07:59;7.87;;;7.03;;
13197;SDS011;6664;52.514;13.440;2023-06-26T02:10:48;10.23;;;7.10;;
13197;SDS011;6664;52.514;13.440;2023-06-26T02:13:34;10.67;;;7.60;;
13197;SDS011;6664;52.514;13.440;2023-06-26T02:16:23;10.27;;;8.10;;
13197;SDS011;6664;52.514;13.440;2023-06-26T02:19:08;11.50;;;7.77;;
13197;SDS011;6664;52.514;13.440;2023-06-26T02:21:54;10.47;;;7.23;;
13197;SDS011;6664;52.514;13.440;2023-06-26T02:24:43;7.57;;;6.70;;
13197;SDS011;6664;52.514;13.440;2023-06-26T02:27:28;9.10;;;6.83;;
13197;SDS011;6664;52.514;13.440;2023-06-26T02:30:14;10.30;;;7.93;;
13197;SDS011;6664;52.514;13.440;2023-06-26T02:33:00;13.50;;;8.37;;
13197;SDS011;6664;52.514;13.440;2023-06-26T02:35:46;8.30;;;7.27;;
13197;SDS011;6664;52.514;13.440;2023-06-26T02:38:32;11.10;;;7.90;;
13197;SDS011;6664;52.514;13.440;2023-06-26T02:41:21;13.60;;;8.60;;
13197;SDS011;6664;52.514;13.440;2023-06-26T02:44:08;11.17;;;8.53;;
13197;SDS011;6664;52.514;13.440;2023-06-26T02:46:57;9.13;;;7.50;;
13197;SDS011;6664;52.514;13.440;2023-06-26T02:49:43;9.70;;;7.80;;
13197;SDS011;6664;52.514;13.440;2023-06-26T02:52:28;9.37;;;7.70;;
13197;SDS011;6664;52.514;13.440;2023-06-26T02:55:14;9.77;;;8.20;;
13197;SDS011;6664;52.514;13.440;2023-06-26T02:57:59;13.20;;;9.40;;
13197;SDS011;6664;52.514;13.440;2023-06-26T03:00:45;8.97;;;7.93;;
13197;SDS011;6664;52.514;13.440;2023-06-26T03:03:32;12.23;;;8.23;;
13197;SDS011;6664;52.514;13.440;2023-06-26T03:06:25;12.10;;;8.53;;
13197;SDS011;6664;52.514;13.440;2023-06-26T03:09:11;12.13;;;9.47;;
13197;SDS011;6664;52.514;13.440;2023-06-26T03:11:59;10.23;;;9.13;;
13197;SDS011;6664;52.514;13.440;2023-06-26T03:14:45;12.57;;;8.60;;
13197;SDS011;6664;52.514;13.440;2023-06-26T03:17:31;10.97;;;8.07;;
13197;SDS011;6664;52.514;13.440;2023-06-26T03:20:17;9.63;;;8.03;;
13197;SDS011;6664;52.514;13.440;2023-06-26T03:23:02;8.80;;;7.77;;
13197;SDS011;6664;52.514;13.440;2023-06-26T03:25:50;10.57;;;8.80;;
13197;SDS011;6664;52.514;13.440;2023-06-26T03:28:36;14.87;;;9.47;;
13197;SDS011;6664;52.514;13.440;2023-06-26T03:31:25;10.20;;;9.00;;
13197;SDS011;6664;52.514;13.440;2023-06-26T03:34:11;9.90;;;8.80;;
13197;SDS011;6664;52.514;13.440;2023-06-26T03:36:57;18.70;;;9.50;;
13197;SDS011;6664;52.514;13.440;2023-06-26T03:39:43;13.10;;;10.37;;
13197;SDS011;6664;52.514;13.440;2023-06-26T03:42:29;13.10;;;9.73;;
13197;SDS011;6664;52.514;13.440;2023-06-26T03:45:17;12.60;;;10.10;;
13197;SDS011;6664;52.514;13.440;2023-06-26T03:48:04;11.87;;;10.53;;
13197;SDS011;6664;52.514;13.440;2023-06-26T03:50:50;14.43;;;10.63;;
13197;SDS011;6664;52.514;13.440;2023-06-26T03:53:36;10.60;;;9.10;;
13197;SDS011;6664;52.514;13.440;2023-06-26T03:56:27;12.90;;;9.67;;
13197;SDS011;6664;52.514;13.440;2023-06-26T03:59:14;11.20;;;9.30;;
13197;SDS011;6664;52.514;13.440;2023-06-26T04:02:02;12.43;;;9.90;;
13197;SDS011;6664;52.514;13.440;2023-06-26T04:04:49;10.20;;;8.77;;
13197;SDS011;6664;52.514;13.440;2023-06-26T04:07:35;12.00;;;9.17;;
13197;SDS011;6664;52.514;13.440;2023-06-26T04:10:21;14.10;;;10.33;;
13197;SDS011;6664;52.514;13.440;2023-06-26T04:13:11;12.03;;;9.00;;
13197;SDS011;6664;52.514;13.440;2023-06-26T04:15:58;12.07;;;9.83;;
13197;SDS011;6664;52.514;13.440;2023-06-26T04:18:44;12.50;;;9.80;;
13197;SDS011;6664;52.514;13.440;2023-06-26T04:21:29;11.27;;;9.60;;
13197;SDS011;6664;52.514;13.440;2023-06-26T04:24:16;11.07;;;8.27;;
13197;SDS011;6664;52.514;13.440;2023-06-26T04:27:01;11.70;;;8.80;;
13197;SDS011;6664;52.514;13.440;2023-06-26T04:29:50;9.37;;;8.33;;
13197;SDS011;6664;52.514;13.440;2023-06-26T04:32:37;10.53;;;8.90;;
13197;SDS011;6664;52.514;13.440;2023-06-26T04:35:22;11.00;;;8.67;;
13197;SDS011;6664;52.514;13.440;2023-06-26T04:38:08;9.40;;;7.20;;
13197;SDS011;6664;52.514;13.440;2023-06-26T04:40:54;9.50;;;8.10;;
13197;SDS011;6664;52.514;13.440;2023-06-26T04:43:40;12.20;;;8.63;;
13197;SDS011;6664;52.514;13.440;2023-06-26T04:46:28;11.43;;;9.13;;
13197;SDS011;6664;52.514;13.440;2023-06-26T04:49:14;10.07;;;8.40;;
13197;SDS011;6664;52.514;13.440;2023-06-26T04:52:03;12.27;;;9.70;;
13197;SDS011;6664;52.514;13.440;2023-06-26T04:54:48;11.13;;;9.17;;
13197;SDS011;6664;52.514;13.440;2023-06-26T04:57:34;11.53;;;9.13;;
13197;SDS011;6664;52.514;13.440;2023-06-26T05:00:22;11.20;;;9.10;;
13197;SDS011;6664;52.514;13.440;2023-06-26T05:03:13;13.40;;;8.27;;
13197;SDS011;6664;52.514;13.440;2023-06-26T05:06:00;10.53;;;9.43;;
13197;SDS011;6664;52.514;13.440;2023-06-26T05:08:53;13.63;;;8.70;;
13197;SDS011;6664;52.514;13.440;2023-06-26T05:11:38;8.70;;;7.77;;
13197;SDS011;6664;52.514;13.440;2023-06-26T05:14:24;10.20;;;7.90;;
13197;SDS011;6664;52.514;13.440;2023-06-26T05:17:10;9.40;;;7.63;;
13197;SDS011;6664;52.514;13.440;2023-06-26T05:19:56;9.50;;;8.20;;
13197;SDS011;6664;52.514;13.440;2023-06-26T05:22:41;9.33;;;7.60;;
13197;SDS011;6664;52.514;13.440;2023-06-26T05:25:28;8.57;;;7.37;;
13197;SDS011;6664;52.514;13.440;2023-06-26T05:28:16;11.50;;;8.63;;
13197;SDS011;6664;52.514;13.440;2023-06-26T05:31:02;10.23;;;7.17;;
13197;SDS011;6664;52.514;13.440;2023-06-26T05:33:51;10.73;;;7.30;;
13197;SDS011;6664;52.514;13.440;2023-06-26T05:36:41;7.97;;;7.17;;
13197;SDS011;6664;52.514;13.440;2023-06-26T05:39:29;8.10;;;7.30;;
13197;SDS011;6664;52.514;13.440;2023-06-26T05:42:15;8.97;;;7.90;;
13197;SDS011;6664;52.514;13.440;2023-06-26T05:45:04;10.33;;;7.40;;
13197;SDS011;6664;52.514;13.440;2023-06-26T05:47:50;8.03;;;7.23;;
13197;SDS011;6664;52.514;13.440;2023-06-26T05:50:35;9.93;;;8.30;;
13197;SDS011;6664;52.514;13.440;2023-06-26T05:53:22;9.83;;;8.20;;
13197;SDS011;6664;52.514;13.440;2023-06-26T05:56:11;11.83;;;7.57;;
13197;SDS011;6664;52.514;13.440;2023-06-26T05:58:56;13.07;;;7.83;;
13197;SDS011;6664;52.514;13.440;2023-06-26T06:01:43;11.73;;;6.87;;
13197;SDS011;6664;52.514;13.440;2023-06-26T06:04:28;11.07;;;7.10;;
13197;SDS011;6664;52.514;13.440;2023-06-26T06:07:14;11.10;;;7.20;;
13197;SDS011;6664;52.514;13.440;2023-06-26T06:10:01;8.50;;;7.60;;
13197;SDS011;6664;52.514;13.440;2023-06-26T06:12:48;8.70;;;7.50;;
13197;SDS011;6664;52.514;13.440;2023-06-26T06:15:34;8.93;;;7.70;;
13197;SDS011;6664;52.514;13.440;2023-06-26T06:18:20;8.53;;;6.57;;
13197;SDS011;6664;52.514;13.440;2023-06-26T06:21:08;8.57;;;6.80;;
13197;SDS011;6664;52.514;13.440;2023-06-26T06:23:56;8.17;;;7.37;;
13197;SDS011;6664;52.514;13.440;2023-06-26T06:26:43;16.77;;;7.70;;
13197;SDS011;6664;52.514;13.440;2023-06-26T06:29:29;9.17;;;7.30;;
13197;SDS011;6664;52.514;13.440;2023-06-26T06:32:17;9.43;;;7.40;;
13197;SDS011;6664;52.514;13.440;2023-06-26T06:35:03;8.73;;;6.40;;
13197;SDS011;6664;52.514;13.440;2023-06-26T06:37:55;6.57;;;5.90;;
13197;SDS011;6664;52.514;13.440;2023-06-26T06:40:40;7.80;;;6.57;;
13197;SDS011;6664;52.514;13.440;2023-06-26T06:43:27;7.77;;;7.00;;
13197;SDS011;6664;52.514;13.440;2023-06-26T06:46:16;14.03;;;6.93;;
13197;SDS011;6664;52.514;13.440;2023-06-26T06:49:04;9.90;;;6.80;;
13197;SDS011;6664;52.514;13.440;2023-06-26T06:51:52;6.77;;;6.10;;
13197;SDS011;6664;52.514;13.440;2023-06-26T06:54:51;7.40;;;6.00;;
13197;SDS011;6664;52.514;13.440;2023-06-26T06:57:39;6.53;;;5.03;;
13197;SDS011;6664;52.514;13.440;2023-06-26T07:00:24;5.53;;;5.00;;
13197;SDS011;6664;52.514;13.440;2023-06-26T07:03:13;4.87;;;4.47;;
13197;SDS011;6664;52.514;13.440;2023-06-26T07:05:59;7.27;;;4.90;;
13197;SDS011;6664;52.514;13.440;2023-06-26T07:08:44;7.73;;;5.53;;
13197;SDS011;6664;52.514;13.440;2023-06-26T07:11:35;6.20;;;4.87;;
13197;SDS011;6664;52.514;13.440;2023-06-26T07:14:21;5.37;;;4.40;;
13197;SDS011;6664;52.514;13.440;2023-06-26T07:17:06;5.80;;;5.27;;
13197;SDS011;6664;52.514;13.440;2023-06-26T07:19:53;5.60;;;4.03;;
13197;SDS011;6664;52.514;13.440;2023-06-26T07:22:39;5.33;;;4.47;;
13197;SDS011;6664;52.514;13.440;2023-06-26T07:25:24;5.93;;;4.60;;
13197;SDS011;6664;52.514;13.440;2023-06-26T07:28:13;9.63;;;5.63;;
13197;SDS011;6664;52.514;13.440;2023-06-26T07:30:59;7.00;;;4.90;;
13197;SDS011;6664;52.514;13.440;2023-06-26T07:33:45;5.30;;;4.80;;
13197;SDS011;6664;52.514;13.440;2023-06-26T07:36:30;5.70;;;4.30;;
13197;SDS011;6664;52.514;13.440;2023-06-26T07:39:16;6.20;;;5.20;;
13197;SDS011;6664;52.514;13.440;2023-06-26T07:42:07;4.87;;;4.47;;
13197;SDS011;6664;52.514;13.440;2023-06-26T07:44:56;7.53;;;4.10;;
13197;SDS011;6664;52.514;13.440;2023-06-26T07:47:44;4.40;;;4.00;;
13197;SDS011;6664;52.514;13.440;2023-06-26T07:50:29;4.77;;;4.27;;
13197;SDS011;6664;52.514;13.440;2023-06-26T07:53:15;6.77;;;5.23;;
13197;SDS011;6664;52.514;13.440;2023-06-26T07:56:01;4.93;;;4.00;;
13197;SDS011;6664;52.514;13.440;2023-06-26T07:58:46;4.00;;;3.60;;
13197;SDS011;6664;52.514;13.440;2023-06-26T08:01:32;16.73;;;4.10;;
13197;SDS011;6664;52.514;13.440;2023-06-26T08:04:18;7.30;;;5.20;;
13197;SDS011;6664;52.514;13.440;2023-06-26T08:07:08;5.53;;;4.20;;
13197;SDS011;6664;52.514;13.440;2023-06-26T08:09:54;5.20;;;3.93;;
13197;SDS011;6664;52.514;13.440;2023-06-26T08:12:40;5.90;;;4.47;;
13197;SDS011;6664;52.514;13.440;2023-06-26T08:15:30;4.33;;;3.83;;
13197;SDS011;6664;52.514;13.440;2023-06-26T08:18:18;5.80;;;3.23;;
13197;SDS011;6664;52.514;13.440;2023-06-26T08:21:06;3.90;;;3.60;;
13197;SDS011;6664;52.514;13.440;2023-06-26T08:23:51;7.27;;;3.90;;
13197;SDS011;6664;52.514;13.440;2023-06-26T08:26:37;5.27;;;4.30;;
13197;SDS011;6664;52.514;13.440;2023-06-26T08:29:23;10.73;;;4.20;;
13197;SDS011;6664;52.514;13.440;2023-06-26T08:32:10;4.13;;;3.73;;
13197;SDS011;6664;52.514;13.440;2023-06-26T08:34:58;7.70;;;4.00;;
13197;SDS011;6664;52.514;13.440;2023-06-26T08:37:46;4.07;;;3.77;;
13197;SDS011;6664;52.514;13.440;2023-06-26T08:40:33;6.60;;;3.87;;
13197;SDS011;6664;52.514;13.440;2023-06-26T08:43:18;3.93;;;3.37;;
13197;SDS011;6664;52.514;13.440;2023-06-26T08:46:05;5.70;;;4.07;;
13197;SDS011;6664;52.514;13.440;2023-06-26T08:48:57;4.73;;;4.13;;
13197;SDS011;6664;52.514;13.440;2023-06-26T08:51:52;4.87;;;3.07;;
13197;SDS011;6664;52.514;13.440;2023-06-26T08:54:48;3.33;;;3.03;;
13197;SDS011;6664;52.514;13.440;2023-06-26T08:57:41;7.30;;;3.27;;
13197;SDS011;6664;52.514;13.440;2023-06-26T09:00:29;3.20;;;3.00;;
13197;SDS011;6664;52.514;13.440;2023-06-26T09:03:16;3.47;;;3.20;;
13197;SDS011;6664;52.514;13.440;2023-06-26T09:06:02;4.10;;;3.20;;
13197;SDS011;6664;52.514;13.440;2023-06-26T09:08:50;2.97;;;2.77;;
13197;SDS011;6664;52.514;13.440;2023-06-26T09:11:37;4.60;;;2.90;;
13197;SDS011;6664;52.514;13.440;2023-06-26T09:14:25;3.47;;;3.13;;
13197;SDS011;6664;52.514;13.440;2023-06-26T09:17:17;2.80;;;2.57;;
13197;SDS011;6664;52.514;13.440;2023-06-26T09:20:05;6.17;;;3.33;;
13197;SDS011;6664;52.514;13.440;2023-06-26T09:22:53;3.37;;;2.53;;
13197;SDS011;6664;52.514;13.440;2023-06-26T09:25:39;3.40;;;2.60;;
13197;SDS011;6664;52.514;13.440;2023-06-26T09:28:27;3.80;;;2.60;;
13197;SDS011;6664;52.514;13.440;2023-06-26T09:31:13;3.40;;;3.10;;
13197;SDS011;6664;52.514;13.440;2023-06-26T09:34:15;3.73;;;2.73;;
13197;SDS011;6664;52.514;13.440;2023-06-26T09:37:05;3.47;;;3.17;;
13197;SDS011;6664;52.514;13.440;2023-06-26T09:39:54;3.00;;;2.80;;
13197;SDS011;6664;52.514;13.440;2023-06-26T09:42:39;4.00;;;3.60;;
13197;SDS011;6664;52.514;13.440;2023-06-26T09:45:25;4.10;;;3.60;;
13197;SDS011;6664;52.514;13.440;2023-06-26T09:48:11;4.40;;;2.90;;
13197;SDS011;6664;52.514;13.440;2023-06-26T09:51:02;3.27;;;2.97;;
13197;SDS011;6664;52.514;13.440;2023-06-26T09:54:00;5.00;;;3.20;;
13197;SDS011;6664;52.514;13.440;2023-06-26T09:56:49;3.30;;;3.00;;
13197;SDS011;6664;52.514;13.440;2023-06-26T09:59:35;2.93;;;2.70;;
13197;SDS011;6664;52.514;13.440;2023-06-26T10:02:22;2.43;;;2.20;;
13197;SDS011;6664;52.514;13.440;2023-06-26T10:05:10;3.27;;;3.07;;
13197;SDS011;6664;52.514;13.440;2023-06-26T10:07:56;4.40;;;3.13;;
13197;SDS011;6664;52.514;13.440;2023-06-26T10:10:44;2.70;;;2.50;;
13197;SDS011;6664;52.514;13.440;2023-06-26T10:13:35;3.20;;;2.90;;
13197;SDS011;6664;52.514;13.440;2023-06-26T10:16:27;5.33;;;3.30;;
13197;SDS011;6664;52.514;13.440;2023-06-26T10:19:19;5.93;;;3.23;;
13197;SDS011;6664;52.514;13.440;2023-06-26T10:22:09;6.07;;;3.80;;
13197;SDS011;6664;52.514;13.440;2023-06-26T10:25:00;12.93;;;3.20;;
13197;SDS011;6664;52.514;13.440;2023-06-26T10:27:53;4.37;;;3.40;;
13197;SDS011;6664;52.514;13.440;2023-06-26T10:30:42;2.90;;;2.70;;
13197;SDS011;6664;52.514;13.440;2023-06-26T10:33:31;3.47;;;3.17;;
13197;SDS011;6664;52.514;13.440;2023-06-26T10:36:20;3.30;;;3.10;;
13197;SDS011;6664;52.514;13.440;2023-06-26T10:39:16;3.37;;;2.50;;
13197;SDS011;6664;52.514;13.440;2023-06-26T10:42:08;2.80;;;2.60;;
13197;SDS011;6664;52.514;13.440;2023-06-26T10:44:55;3.40;;;2.87;;
13197;SDS011;6664;52.514;13.440;2023-06-26T10:47:53;3.33;;;2.60;;
13197;SDS011;6664;52.514;13.440;2023-06-26T10:50:39;10.10;;;2.93;;
13197;SDS011;6664;52.514;13.440;2023-06-26T10:53:25;9.83;;;2.50;;
13197;SDS011;6664;52.514;13.440;2023-06-26T10:56:19;3.07;;;2.87;;
13197;SDS011;6664;52.514;13.440;2023-06-26T10:59:19;2.83;;;2.63;;
13197;SDS011;6664;52.514;13.440;2023-06-26T11:02:06;3.13;;;2.67;;
13197;SDS011;6664;52.514;13.440;2023-06-26T11:04:54;3.17;;;2.90;;
13197;SDS011;6664;52.514;13.440;2023-06-26T11:08:02;3.97;;;2.50;;
13197;SDS011;6664;52.514;13.440;2023-06-26T11:10:59;3.00;;;2.50;;
13197;SDS011;6664;52.514;13.440;2023-06-26T11:13:46;2.37;;;2.27;;
13197;SDS011;6664;52.514;13.440;2023-06-26T11:16:33;2.60;;;2.40;;
13197;SDS011;6664;52.514;13.440;2023-06-26T11:19:20;2.57;;;2.37;;
13197;SDS011;6664;52.514;13.440;2023-06-26T11:22:05;3.27;;;3.00;;
13197;SDS011;6664;52.514;13.440;2023-06-26T11:24:53;2.50;;;2.30;;
13197;SDS011;6664;52.514;13.440;2023-06-26T11:27:42;2.90;;;2.70;;
13197;SDS011;6664;52.514;13.440;2023-06-26T11:30:31;3.13;;;2.80;;
13197;SDS011;6664;52.514;13.440;2023-06-26T11:33:19;2.87;;;2.67;;
13197;SDS011;6664;52.514;13.440;2023-06-26T11:36:11;2.90;;;2.70;;
13197;SDS011;6664;52.514;13.440;2023-06-26T11:38:58;4.73;;;3.03;;
13197;SDS011;6664;52.514;13.440;2023-06-26T11:41:55;2.30;;;2.20;;
13197;SDS011;6664;52.514;13.440;2023-06-26T11:44:41;2.40;;;2.07;;
13197;SDS011;6664;52.514;13.440;2023-06-26T11:47:29;4.20;;;2.80;;
13197;SDS011;6664;52.514;13.440;2023-06-26T11:50:15;3.07;;;2.77;;
13197;SDS011;6664;52.514;13.440;2023-06-26T11:53:04;2.97;;;2.67;;
13197;SDS011;6664;52.514;13.440;2023-06-26T11:55:50;3.30;;;3.00;;
13197;SDS011;6664;52.514;13.440;2023-06-26T12:01:49;3.93;;;3.53;;
13197;SDS011;6664;52.514;13.440;2023-06-26T12:04:37;3.70;;;3.37;;
13197;SDS011;6664;52.514;13.440;2023-06-26T12:07:25;2.50;;;2.30;;
13197;SDS011;6664;52.514;13.440;2023-06-26T12:10:11;2.93;;;2.73;;
13197;SDS011;6664;52.514;13.440;2023-06-26T12:12:58;3.50;;;3.20;;
13197;SDS011;6664;52.514;13.440;2023-06-26T12:15:46;6.03;;;2.47;;
13197;SDS011;6664;52.514;13.440;2023-06-26T12:18:35;3.40;;;3.20;;
13197;SDS011;6664;52.514;13.440;2023-06-26T12:21:27;2.90;;;2.70;;
13197;SDS011;6664;52.514;13.440;2023-06-26T12:24:17;4.10;;;2.90;;
13197;SDS011;6664;52.514;13.440;2023-06-26T12:27:08;4.10;;;3.30;;
13197;SDS011;6664;52.514;13.440;2023-06-26T12:29:55;3.37;;;3.10;;
13197;SDS011;6664;52.514;13.440;2023-06-26T12:32:44;2.77;;;2.57;;
13197;SDS011;6664;52.514;13.440;2023-06-26T12:35:33;3.10;;;2.80;;
13197;SDS011;6664;52.514;13.440;2023-06-26T12:38:19;4.72;;;2.75;;
13197;SDS011;6664;52.514;13.440;2023-06-26T12:41:05;4.65;;;2.75;;
13197;SDS011;6664;52.514;13.440;2023-06-26T12:43:56;2.88;;;2.67;;
13197;SDS011;6664;52.514;13.440;2023-06-26T12:46:49;4.28;;;2.17;;
13197;SDS011;6664;52.514;13.440;2023-06-26T12:49:38;2.20;;;1.95;;
13197;SDS011;6664;52.514;13.440;2023-06-26T12:52:25;3.28;;;1.80;;
13197;SDS011;6664;52.514;13.440;2023-06-26T12:55:11;1.90;;;1.80;;
13197;SDS011;6664;52.514;13.440;2023-06-26T12:57:59;1.60;;;1.50;;
13197;SDS011;6664;52.514;13.440;2023-06-26T13:00:47;4.10;;;2.05;;
13197;SDS011;6664;52.514;13.440;2023-06-26T13:03:36;1.50;;;1.48;;
13197;SDS011;6664;52.514;13.440;2023-06-26T13:06:27;1.60;;;1.50;;
13197;SDS011;6664;52.514;13.440;2023-06-26T13:09:13;1.95;;;1.85;;
13197;SDS011;6664;52.514;13.440;2023-06-26T13:12:02;2.35;;;2.17;;
13197;SDS011;6664;52.514;13.440;2023-06-26T13:14:53;2.35;;;2.25;;
13197;SDS011;6664;52.514;13.440;2023-06-26T13:17:42;2.63;;;2.47;;
13197;SDS011;6664;52.514;13.440;2023-06-26T13:20:28;4.25;;;2.88;;
13197;SDS011;6664;52.514;13.440;2023-06-26T13:23:17;3.80;;;3.50;;
13197;SDS011;6664;52.514;13.440;2023-06-26T13:26:04;2.90;;;2.70;;
13197;SDS011;6664;52.514;13.440;2023-06-26T13:28:50;3.05;;;2.85;;
13197;SDS011;6664;52.514;13.440;2023-06-26T13:31:36;3.55;;;3.25;;
13197;SDS011;6664;52.514;13.440;2023-06-26T13:34:23;3.43;;;3.20;;
13197;SDS011;6664;52.514;13.440;2023-06-26T13:37:13;4.17;;;3.67;;
13197;SDS011;6664;52.514;13.440;2023-06-26T13:39:59;3.80;;;3.50;;
13197;SDS011;6664;52.514;13.440;2023-06-26T13:42:47;4.20;;;3.80;;
13197;SDS011;6664;52.514;13.440;2023-06-26T13:45:36;4.07;;;3.33;;
13197;SDS011;6664;52.514;13.440;2023-06-26T13:48:22;3.60;;;3.30;;
13197;SDS011;6664;52.514;13.440;2023-06-26T13:51:11;3.77;;;3.40;;
13197;SDS011;6664;52.514;13.440;2023-06-26T13:53:57;4.13;;;3.50;;
13197;SDS011;6664;52.514;13.440;2023-06-26T13:56:45;4.40;;;4.00;;
13197;SDS011;6664;52.514;13.440;2023-06-26T13:59:32;3.37;;;3.17;;
13197;SDS011;6664;52.514;13.440;2023-06-26T14:02:18;5.23;;;3.13;;
13197;SDS011;6664;52.514;13.440;2023-06-26T14:05:04;4.17;;;3.87;;
13197;SDS011;6664;52.514;13.440;2023-06-26T14:07:51;3.77;;;3.37;;
13197;SDS011;6664;52.514;13.440;2023-06-26T14:10:37;3.57;;;3.20;;
13197;SDS011;6664;52.514;13.440;2023-06-26T14:13:24;4.40;;;4.10;;
13197;SDS011;6664;52.514;13.440;2023-06-26T14:16:10;3.70;;;3.40;;
13197;SDS011;6664;52.514;13.440;2023-06-26T14:18:56;4.90;;;4.40;;
13197;SDS011;6664;52.514;13.440;2023-06-26T14:21:41;7.07;;;3.60;;
13197;SDS011;6664;52.514;13.440;2023-06-26T14:24:27;4.33;;;3.93;;
13197;SDS011;6664;52.514;13.440;2023-06-26T14:27:13;3.60;;;3.30;;
13197;SDS011;6664;52.514;13.440;2023-06-26T14:29:59;7.87;;;3.13;;
13197;SDS011;6664;52.514;13.440;2023-06-26T14:32:46;0.50;;;0.50;;
13197;SDS011;6664;52.514;13.440;2023-06-26T14:35:31;0.70;;;0.70;;
13197;SDS011;6664;52.514;13.440;2023-06-26T14:38:17;0.50;;;0.50;;
13197;SDS011;6664;52.514;13.440;2023-06-26T14:41:03;0.60;;;0.60;;
13197;SDS011;6664;52.514;13.440;2023-06-26T14:43:49;0.90;;;0.80;;
13197;SDS011;6664;52.514;13.440;2023-06-26T14:46:35;0.50;;;0.50;;
13197;SDS011;6664;52.514;13.440;2023-06-26T14:49:22;0.50;;;0.50;;
13197;SDS011;6664;52.514;13.440;2023-06-26T14:52:10;0.50;;;0.50;;
13197;SDS011;6664;52.514;13.440;2023-06-26T14:54:56;0.60;;;0.60;;
13197;SDS011;6664;52.514;13.440;2023-06-26T14:57:42;0.50;;;0.50;;
13197;SDS011;6664;52.514;13.440;2023-06-26T15:00:28;0.70;;;0.70;;
13197;SDS011;6664;52.514;13.440;2023-06-26T15:03:14;0.50;;;0.50;;
13197;SDS011;6664;52.514;13.440;2023-06-26T15:05:59;0.60;;;0.60;;
13197;SDS011;6664;52.514;13.440;2023-06-26T15:08:45;0.60;;;0.60;;
13197;SDS011;6664;52.514;13.440;2023-06-26T15:11:31;0.50;;;0.50;;
13197;SDS011;6664;52.514;13.440;2023-06-26T15:14:20;0.50;;;0.50;;
13197;SDS011;6664;52.514;13.440;2023-06-26T15:17:06;0.50;;;0.50;;
13197;SDS011;6664;52.514;13.440;2023-06-26T15:19:52;0.50;;;0.50;;
13197;SDS011;6664;52.514;13.440;2023-06-26T15:22:41;0.50;;;0.50;;
13197;SDS011;6664;52.514;13.440;2023-06-26T15:25:27;0.50;;;0.50;;
13197;SDS011;6664;52.514;13.440;2023-06-26T15:28:17;0.50;;;0.50;;
13197;SDS011;6664;52.514;13.440;2023-06-26T15:31:03;0.50;;;0.50;;
13197;SDS011;6664;52.514;13.440;2023-06-26T15:33:49;0.50;;;0.50;;
13197;SDS011;6664;52.514;13.440;2023-06-26T15:36:37;0.50;;;0.50;;
13197;SDS011;6664;52.514;13.440;2023-06-26T15:39:28;0.50;;;0.50;;
13197;SDS011;6664;52.514;13.440;2023-06-26T15:42:13;0.50;;;0.50;;
13197;SDS011;6664;52.514;13.440;2023-06-26T15:45:02;0.50;;;0.50;;
13197;SDS011;6664;52.514;13.440;2023-06-26T15:47:49;0.50;;;0.50;;
13197;SDS011;6664;52.514;13.440;2023-06-26T15:50:35;0.40;;;0.40;;
13197;SDS011;6664;52.514;13.440;2023-06-26T15:53:20;0.50;;;0.50;;
13197;SDS011;6664;52.514;13.440;2023-06-26T15:56:21;0.50;;;0.50;;
13197;SDS011;6664;52.514;13.440;2023-06-26T15:59:07;0.50;;;0.50;;
13197;SDS011;6664;52.514;13.440;2023-06-26T16:01:53;0.50;;;0.50;;
13197;SDS011;6664;52.514;13.440;2023-06-26T16:04:40;0.50;;;0.50;;
13197;SDS011;6664;52.514;13.440;2023-06-26T16:07:26;0.50;;;0.50;;
13197;SDS011;6664;52.514;13.440;2023-06-26T16:10:14;0.50;;;0.50;;
13197;SDS011;6664;52.514;13.440;2023-06-26T16:13:00;0.50;;;0.50;;
13197;SDS011;6664;52.514;13.440;2023-06-26T16:15:46;0.50;;;0.50;;
13197;SDS011;6664;52.514;13.440;2023-06-26T16:18:37;0.50;;;0.50;;
13197;SDS011;6664;52.514;13.440;2023-06-26T16:21:24;0.50;;;0.50;;
13197;SDS011;6664;52.514;13.440;2023-06-26T16:24:10;0.60;;;0.60;;
13197;SDS011;6664;52.514;13.440;2023-06-26T16:26:55;0.50;;;0.50;;
13197;SDS011;6664;52.514;13.440;2023-06-26T16:29:44;0.57;;;0.57;;
13197;SDS011;6664;52.514;13.440;2023-06-26T16:32:29;0.40;;;0.40;;
13197;SDS011;6664;52.514;13.440;2023-06-26T16:35:18;0.50;;;0.50;;
13197;SDS011;6664;52.514;13.440;2023-06-26T16:38:04;0.50;;;0.50;;
13197;SDS011;6664;52.514;13.440;2023-06-26T16:40:53;0.50;;;0.50;;
13197;SDS011;6664;52.514;13.440;2023-06-26T16:43:39;0.50;;;0.50;;
13197;SDS011;6664;52.514;13.440;2023-06-26T16:46:28;0.53;;;0.53;;
13197;SDS011;6664;52.514;13.440;2023-06-26T16:49:14;0.70;;;0.70;;
13197;SDS011;6664;52.514;13.440;2023-06-26T16:52:02;0.50;;;0.50;;
13197;SDS011;6664;52.514;13.440;2023-06-26T16:54:50;0.50;;;0.50;;